Time;durP1;ratioP1;P1;durP2;ratioP2;P2;SDS_P1;SDS_P2;PMS_P1;PMS_P2;Temp;Humidity;BMP_temperature;BMP_pressure;BME280_temperature;BME280_humidity;BME280_pressure;Samples;Min_cycle;Max_cycle;Signal;HPM_P1;HPM_P2
2023/09/08 00:00:10;;;;;;;;;;;;;;;28.56;30.14;101125.72;5076708;28;1144;-26
2023/09/08 00:02:35;;;;;;;;;;;;;;;28.57;30.41;101120.13;5077168;28;1026;-26
2023/09/08 00:05:01;;;;;;;;;;;;;;;28.53;30.09;101117.97;5076664;28;1121;-28
2023/09/08 00:07:26;;;;;;;;;;;;;;;28.56;30.01;101117.59;5077044;28;1122;-26
2023/09/08 00:09:52;;;;;;;;;;;;;;;28.52;30.26;101108.16;5076801;28;1031;-25
2023/09/08 00:12:18;;;;;;;;;;;;;;;28.57;30.42;101106.59;5076577;28;1980;-27
2023/09/08 00:14:43;;;;;;;;;;;;;;;28.54;30.38;101106.97;5076553;28;1078;-26
2023/09/08 00:17:09;;;;;;;;;;;;;;;28.45;30.27;101108.06;5076841;28;991;-29
2023/09/08 00:19:34;;;;;;;;;;;;;;;28.40;30.25;101103.19;5076332;28;1241;-29
2023/09/08 00:22:00;;;;;;;;;;;;;;;28.54;30.16;101098.00;5076610;28;1070;-29
2023/09/08 00:24:26;;;;;;;;;;;;;;;28.55;30.33;101108.63;5076019;28;1036;-28
2023/09/08 00:26:51;;;;;;;;;;;;;;;28.56;30.26;101107.59;5076272;28;1003;-26
2023/09/08 00:29:17;;;;;;;;;;;;;;;28.47;30.30;101103.31;5076583;28;1083;-26
2023/09/08 00:31:42;;;;;;;;;;;;;;;28.47;30.57;101104.16;5076563;28;1910;-25
2023/09/08 00:34:08;;;;;;;;;;;;;;;28.52;30.51;101097.34;5058181;28;1067;-28
2023/09/08 00:36:33;;;;;;;;;;;;;;;28.44;30.51;101103.69;5076150;28;1259;-26
2023/09/08 00:38:59;;;;;;;;;;;;;;;28.48;30.32;101097.72;5076441;28;1209;-25
2023/09/08 00:41:24;;;;;;;;;;;;;;;28.33;30.49;101099.53;5076516;28;1079;-27
2023/09/08 00:43:50;;;;;;;;;;;;;;;28.32;30.44;101100.53;5058021;28;1087;-24
2023/09/08 00:46:16;;;;;;;;;;;;;;;28.57;30.18;101097.63;5076167;28;1067;-28
2023/09/08 00:48:41;;;;;;;;;;;;;;;28.58;30.27;101105.56;5058024;28;1084;-24
2023/09/08 00:51:07;;;;;;;;;;;;;;;28.58;29.91;101108.28;5058433;28;1977;-25
2023/09/08 00:53:33;;;;;;;;;;;;;;;28.28;30.33;101113.56;5076163;28;1126;-25
2023/09/08 00:55:58;;;;;;;;;;;;;;;28.42;30.53;101111.13;5076050;28;1039;-26
2023/09/08 00:58:24;;;;;;;;;;;;;;;28.51;30.31;101106.50;5076177;28;1220;-26
2023/09/08 01:00:49;;;;;;;;;;;;;;;28.40;30.37;101105.06;5057997;28;1115;-25
2023/09/08 01:03:15;;;;;;;;;;;;;;;28.47;30.12;101109.56;5076166;28;1126;-28
2023/09/08 01:05:40;;;;;;;;;;;;;;;28.52;29.97;101097.34;5075763;28;1114;-25
2023/09/08 01:08:07;;;;;;;;;;;;;;;28.44;30.25;101098.25;5057662;28;1011;-26
2023/09/08 01:10:32;;;;;;;;;;;;;;;28.52;30.19;101105.44;5076234;28;1983;-25
2023/09/08 01:12:59;;;;;;;;;;;;;;;28.43;30.00;101102.81;5057544;28;1336;-25
2023/09/08 01:15:24;;;;;;;;;;;;;;;28.42;30.26;101098.44;5075808;28;1062;-26
2023/09/08 01:17:50;;;;;;;;;;;;;;;28.38;30.38;101102.53;5075740;28;1106;-26
2023/09/08 01:20:21;;;;;;;;;;;;;;;28.43;30.26;101104.69;5075779;28;1130;-26
2023/09/08 01:22:59;;;;;;;;;;;;;;;28.36;30.15;101094.59;5075964;28;1056;-26
2023/09/08 01:25:24;;;;;;;;;;;;;;;28.33;30.09;101091.41;5076107;28;1060;-26
2023/09/08 01:27:51;;;;;;;;;;;;;;;28.39;30.32;101096.13;5062247;28;1139;-27
2023/09/08 01:30:17;;;;;;;;;;;;;;;28.49;30.03;101098.56;5058166;28;1130;-25
2023/09/08 01:32:44;;;;;;;;;;;;;;;28.40;30.14;101095.09;5075616;28;1895;-29
2023/09/08 01:35:10;;;;;;;;;;;;;;;28.45;30.02;101091.81;5075518;28;1006;-25
2023/09/08 01:37:36;;;;;;;;;;;;;;;28.45;30.10;101097.22;5061096;28;1204;-25
2023/09/08 01:40:01;;;;;;;;;;;;;;;28.56;29.79;101094.06;5079981;28;1126;-26
2023/09/08 01:42:27;;;;;;;;;;;;;;;28.46;30.27;101097.03;5061954;28;1111;-25
2023/09/08 01:44:52;;;;;;;;;;;;;;;28.48;30.00;101095.00;5079374;28;1050;-28
2023/09/08 01:47:18;;;;;;;;;;;;;;;28.65;29.83;101097.53;5061619;28;1166;-26
2023/09/08 01:49:43;;;;;;;;;;;;;;;28.50;29.97;101094.81;5079278;28;1110;-26
2023/09/08 01:52:09;;;;;;;;;;;;;;;28.20;30.73;101089.31;5061352;28;1922;-26
2023/09/08 01:54:34;;;;;;;;;;;;;;;28.35;30.24;101092.94;5079264;28;1007;-26
2023/09/08 01:57:00;;;;;;;;;;;;;;;28.37;30.15;101087.34;5060839;28;1284;-27
2023/09/08 01:59:25;;;;;;;;;;;;;;;28.46;30.17;101096.22;5061369;28;1130;-26
2023/09/08 02:01:51;;;;;;;;;;;;;;;28.39;30.31;101089.84;5061191;28;1180;-27
2023/09/08 02:04:16;;;;;;;;;;;;;;;28.20;30.73;101082.03;5079453;28;1047;-26
2023/09/08 02:06:42;;;;;;;;;;;;;;;28.20;30.97;101094.72;5079428;28;1007;-27
2023/09/08 02:09:09;;;;;;;;;;;;;;;28.28;30.95;101093.81;5078922;28;1177;-28
2023/09/08 02:11:34;;;;;;;;;;;;;;;28.40;30.64;101086.13;5078959;28;1917;-27
2023/09/08 02:14:00;;;;;;;;;;;;;;;28.43;30.60;101089.28;5079398;28;1063;-27
2023/09/08 02:16:25;;;;;;;;;;;;;;;28.28;30.78;101083.00;5078998;28;1050;-28
2023/09/08 02:18:51;;;;;;;;;;;;;;;28.44;30.45;101085.59;5078883;28;1092;-30
2023/09/08 02:21:16;;;;;;;;;;;;;;;28.33;30.56;101084.16;5078718;28;1142;-26
2023/09/08 02:23:42;;;;;;;;;;;;;;;28.40;30.42;101083.41;5079148;28;1083;-30
2023/09/08 02:26:07;;;;;;;;;;;;;;;28.39;30.33;101081.75;5060520;28;1078;-29
2023/09/08 02:28:33;;;;;;;;;;;;;;;28.32;30.66;101085.16;5060598;28;1079;-28
2023/09/08 02:30:59;;;;;;;;;;;;;;;28.36;30.60;101080.25;5060464;28;1972;-26
2023/09/08 02:33:24;;;;;;;;;;;;;;;28.42;30.42;101076.81;5060305;28;1320;-29
2023/09/08 02:35:50;;;;;;;;;;;;;;;28.45;30.33;101081.00;5060699;28;1229;-26
2023/09/08 02:38:17;;;;;;;;;;;;;;;28.47;30.24;101074.38;5060550;28;1683;-30
2023/09/08 02:40:43;;;;;;;;;;;;;;;28.40;30.30;101076.13;5078106;28;1031;-26
2023/09/08 02:43:10;;;;;;;;;;;;;;;28.33;30.57;101072.47;5060926;28;1256;-27
2023/09/08 02:45:36;;;;;;;;;;;;;;;28.24;30.61;101072.53;5060289;28;1234;-26
2023/09/08 02:48:02;;;;;;;;;;;;;;;28.37;30.40;101062.97;5059749;28;1329;-26
2023/09/08 02:50:29;;;;;;;;;;;;;;;28.31;30.32;101061.81;5060253;28;1909;-27
2023/09/08 02:52:54;;;;;;;;;;;;;;;28.35;30.40;101059.63;5078571;28;1054;-26
2023/09/08 02:55:20;;;;;;;;;;;;;;;28.21;30.44;101061.25;5078212;28;1428;-29
2023/09/08 02:57:45;;;;;;;;;;;;;;;28.22;30.20;101061.06;5078227;28;1059;-28
2023/09/08 03:00:11;;;;;;;;;;;;;;;28.19;30.25;101064.13;5077925;28;1145;-27
2023/09/08 03:02:36;;;;;;;;;;;;;;;28.46;30.12;101064.56;5078334;28;1059;-28
2023/09/08 03:05:02;;;;;;;;;;;;;;;28.21;30.38;101063.97;5060348;28;1312;-26
2023/09/08 03:07:28;;;;;;;;;;;;;;;28.29;30.27;101057.63;5060419;28;1123;-27
2023/09/08 03:09:53;;;;;;;;;;;;;;;28.29;30.42;101061.19;5059619;28;1161;-28
2023/09/08 03:12:20;;;;;;;;;;;;;;;28.19;30.22;101064.13;5060133;28;1918;-29
2023/09/08 03:14:46;;;;;;;;;;;;;;;28.31;30.34;101061.81;5071828;28;1147;-26
2023/09/08 03:17:12;;;;;;;;;;;;;;;27.85;31.11;101057.31;5056659;28;1301;-27
2023/09/08 03:19:38;;;;;;;;;;;;;;;27.39;32.05;101059.75;5072697;28;1059;-31
2023/09/08 03:22:05;;;;;;;;;;;;;;;27.45;32.35;101060.06;5059577;28;1119;-28
2023/09/08 03:24:31;;;;;;;;;;;;;;;27.36;32.67;101059.28;5077696;28;1071;-26
2023/09/08 03:26:57;;;;;;;;;;;;;;;27.29;33.33;101059.16;5078111;28;1143;-27
2023/09/08 03:29:23;;;;;;;;;;;;;;;27.23;33.29;101060.69;5059558;28;996;-29
2023/09/08 03:31:48;;;;;;;;;;;;;;;27.31;33.73;101061.69;5059677;28;1902;-27
2023/09/08 03:34:14;;;;;;;;;;;;;;;27.26;34.02;101067.59;5059790;28;1118;-27
2023/09/08 03:36:39;;;;;;;;;;;;;;;27.23;33.64;101067.94;5059953;28;1127;-29
2023/09/08 03:39:05;;;;;;;;;;;;;;;27.30;33.32;101062.69;5059691;28;1239;-26
2023/09/08 03:41:31;;;;;;;;;;;;;;;27.13;33.67;101057.34;5059555;28;1051;-30
2023/09/08 03:43:57;;;;;;;;;;;;;;;27.20;33.44;101058.34;5059683;28;1208;-30
2023/09/08 03:46:24;;;;;;;;;;;;;;;27.06;33.83;101056.38;5059145;28;941;-29
2023/09/08 03:48:49;;;;;;;;;;;;;;;27.07;34.15;101061.63;5059232;28;2351;-27
2023/09/08 03:51:15;;;;;;;;;;;;;;;27.29;33.77;101061.00;5067741;28;1905;-26
2023/09/08 03:53:40;;;;;;;;;;;;;;;27.48;34.09;101065.09;5069151;28;1069;-26
2023/09/08 03:56:06;;;;;;;;;;;;;;;27.41;34.06;101058.75;5059263;28;1226;-29
2023/09/08 03:58:31;;;;;;;;;;;;;;;27.23;34.83;101081.44;5076940;28;850;-28
2023/09/08 04:00:57;;;;;;;;;;;;;;;27.45;35.31;101073.56;5059021;28;1407;-30
2023/09/08 04:03:22;;;;;;;;;;;;;;;27.56;34.31;101061.53;5058992;28;1195;-26
2023/09/08 04:05:48;;;;;;;;;;;;;;;27.48;34.27;101079.47;5059241;28;1091;-29
2023/09/08 04:08:14;;;;;;;;;;;;;;;27.63;33.77;101084.97;5059207;28;1331;-32
2023/09/08 04:10:39;;;;;;;;;;;;;;;27.31;34.63;101081.41;5058582;28;1905;-28
2023/09/08 04:13:05;;;;;;;;;;;;;;;27.67;33.80;101082.75;5058751;28;1205;-31
2023/09/08 04:15:30;;;;;;;;;;;;;;;27.67;33.48;101084.59;5059072;28;1230;-27
2023/09/08 04:17:57;;;;;;;;;;;;;;;27.66;33.31;101077.53;5058246;28;1120;-27
2023/09/08 04:20:23;;;;;;;;;;;;;;;27.70;33.95;101086.97;5054954;28;1123;-27
2023/09/08 04:22:48;;;;;;;;;;;;;;;27.94;33.59;101087.84;5061554;28;1322;-27
2023/09/08 04:25:14;;;;;;;;;;;;;;;28.08;33.59;101091.59;5076114;28;1075;-29
2023/09/08 04:27:40;;;;;;;;;;;;;;;27.94;33.15;101094.09;5045318;28;1041;-30
2023/09/08 04:30:06;;;;;;;;;;;;;;;28.08;33.12;101089.75;5044655;28;1164;-29
2023/09/08 04:32:32;;;;;;;;;;;;;;;28.09;32.97;101094.13;5045029;28;2054;-27
2023/09/08 04:34:57;;;;;;;;;;;;;;;27.97;32.93;101099.13;5057828;28;1115;-29
2023/09/08 04:37:24;;;;;;;;;;;;;;;28.15;32.69;101099.81;5057929;28;1095;-31
2023/09/08 04:39:49;;;;;;;;;;;;;;;28.32;32.19;101097.84;5057903;28;1108;-27
2023/09/08 04:42:15;;;;;;;;;;;;;;;28.42;31.83;101094.91;5052922;28;2541;-27
2023/09/08 04:44:40;;;;;;;;;;;;;;;28.39;31.95;101100.69;5049936;28;1203;-29
2023/09/08 04:47:07;;;;;;;;;;;;;;;28.46;31.86;101101.63;5052357;28;1099;-28
2023/09/08 04:49:33;;;;;;;;;;;;;;;28.45;31.85;101097.22;5049971;28;1359;-29
2023/09/08 04:51:58;;;;;;;;;;;;;;;28.48;32.21;101100.41;5075512;28;1901;-30
2023/09/08 04:54:27;;;;;;;;;;;;;;;28.55;31.88;101097.81;5058052;28;1167;-31
2023/09/08 04:56:54;;;;;;;;;;;;;;;28.31;32.26;101105.09;5057815;28;1191;-26
2023/09/08 04:59:20;;;;;;;;;;;;;;;28.46;32.12;101109.75;5045199;28;1174;-29
2023/09/08 05:01:45;;;;;;;;;;;;;;;28.48;32.48;101111.25;5057192;28;1322;-27
2023/09/08 05:04:11;;;;;;;;;;;;;;;28.54;32.27;101098.84;5075575;28;1052;-28
2023/09/08 05:06:37;;;;;;;;;;;;;;;28.72;32.14;101103.91;5057759;28;1373;-30
2023/09/08 05:09:03;;;;;;;;;;;;;;;28.72;32.08;101106.63;5057994;28;1359;-27
2023/09/08 05:11:29;;;;;;;;;;;;;;;28.76;31.84;101100.81;5050849;28;1906;-27
2023/09/08 05:13:57;;;;;;;;;;;;;;;28.69;32.27;101106.13;5044150;28;2529;-29
2023/09/08 05:16:36;;;;;;;;;;;;;;;28.66;32.28;101099.22;5057367;28;1289;-28
2023/09/08 05:19:06;;;;;;;;;;;;;;;28.75;32.19;101099.13;5059275;28;1348;-27
2023/09/08 05:21:33;;;;;;;;;;;;;;;28.79;32.27;101100.44;5046671;28;1234;-26
2023/09/08 05:23:59;;;;;;;;;;;;;;;28.77;32.12;101105.19;5041942;28;1178;-27
2023/09/08 05:26:25;;;;;;;;;;;;;;;28.66;32.89;101096.50;5046570;28;1353;-28
2023/09/08 05:28:50;;;;;;;;;;;;;;;28.73;32.65;101102.88;5075615;28;1147;-28
2023/09/08 05:31:16;;;;;;;;;;;;;;;28.88;32.12;101096.63;5057450;28;1975;-28
2023/09/08 05:33:42;;;;;;;;;;;;;;;28.83;32.72;101101.75;5057538;28;1320;-29
2023/09/08 05:36:08;;;;;;;;;;;;;;;28.85;32.60;101100.56;5075495;28;1071;-28
2023/09/08 05:38:33;;;;;;;;;;;;;;;28.77;33.01;101105.19;5075501;28;1087;-31
2023/09/08 05:40:59;;;;;;;;;;;;;;;28.83;32.75;101101.75;5057035;28;1317;-30
2023/09/08 05:43:25;;;;;;;;;;;;;;;28.76;33.07;101106.25;5046092;28;2678;-26
2023/09/08 05:45:51;;;;;;;;;;;;;;;28.09;33.66;101017.56;5044928;28;1255;-28
2023/09/08 05:48:18;;;;;;;;;;;;;;;28.65;33.37;101104.81;5057580;28;1217;-25
2023/09/08 05:50:44;;;;;;;;;;;;;;;28.74;33.48;101106.44;5057119;28;2138;-26
2023/09/08 05:53:10;;;;;;;;;;;;;;;28.55;34.16;101110.50;5057101;28;1214;-28
2023/09/08 05:55:36;;;;;;;;;;;;;;;28.64;33.73;101108.56;5056837;28;1120;-27
2023/09/08 05:58:02;;;;;;;;;;;;;;;28.71;33.99;101110.34;5075311;28;1003;-27
2023/09/08 06:00:28;;;;;;;;;;;;;;;28.70;34.45;101111.38;5056863;28;1079;-29
2023/09/08 06:02:53;;;;;;;;;;;;;;;28.70;34.76;101118.63;5055607;28;1405;-27
2023/09/08 06:05:19;;;;;;;;;;;;;;;28.87;33.88;101122.03;5045510;28;1154;-28
2023/09/08 06:07:45;;;;;;;;;;;;;;;28.90;33.98;101124.34;5056705;28;1221;-26
2023/09/08 06:10:11;;;;;;;;;;;;;;;28.94;33.93;101130.25;5068713;28;1051;-28
2023/09/08 06:12:37;;;;;;;;;;;;;;;28.97;33.84;101129.91;5055683;28;2494;-31
2023/09/08 06:15:03;;;;;;;;;;;;;;;28.98;34.00;101134.28;5037622;28;1183;-27
2023/09/08 06:17:29;;;;;;;;;;;;;;;29.02;33.72;101134.75;5052083;28;1291;-27
2023/09/08 06:19:55;;;;;;;;;;;;;;;29.06;33.83;101130.66;5057108;28;1273;-28
2023/09/08 06:22:21;;;;;;;;;;;;;;;29.07;33.45;101133.19;5055383;28;1102;-26
2023/09/08 06:24:47;;;;;;;;;;;;;;;29.19;32.91;101138.97;5040634;28;1353;-26
2023/09/08 06:27:14;;;;;;;;;;;;;;;29.26;33.62;101135.50;5055760;28;1263;-27
2023/09/08 06:29:40;;;;;;;;;;;;;;;29.26;33.58;101139.03;5060708;28;1239;-29
2023/09/08 06:32:06;;;;;;;;;;;;;;;29.24;33.80;101143.81;5060670;28;1894;-29
2023/09/08 06:34:33;;;;;;;;;;;;;;;29.33;33.87;101136.41;5060311;28;1123;-29
2023/09/08 06:36:59;;;;;;;;;;;;;;;29.33;33.68;101131.84;5046274;28;1169;-26
2023/09/08 06:39:25;;;;;;;;;;;;;;;29.37;33.84;101139.59;5060616;28;1144;-26
2023/09/08 06:41:51;;;;;;;;;;;;;;;29.44;33.75;101135.09;5046268;28;2307;-28
2023/09/08 06:44:17;;;;;;;;;;;;;;;29.42;33.74;101134.44;5048568;28;1267;-28
2023/09/08 06:46:44;;;;;;;;;;;;;;;29.39;33.74;101143.81;5058828;28;1162;-27
2023/09/08 06:49:10;;;;;;;;;;;;;;;29.40;33.67;101139.19;5066442;28;1028;-27
2023/09/08 06:51:36;;;;;;;;;;;;;;;29.35;34.01;101137.06;5059533;28;1902;-25
2023/09/08 06:54:03;;;;;;;;;;;;;;;29.39;33.88;101135.66;5057866;28;1364;-28
2023/09/08 06:56:35;;;;;;;;;;;;;;;29.46;34.04;101130.34;5057157;28;1237;-28
2023/09/08 06:59:01;;;;;;;;;;;;;;;29.43;34.33;101136.09;5049159;28;1114;-26
2023/09/08 07:01:27;;;;;;;;;;;;;;;29.37;34.25;101142.28;5059858;28;1218;-26
2023/09/08 07:03:53;;;;;;;;;;;;;;;29.37;34.71;101142.28;5077361;28;1761;-29
2023/09/08 07:06:22;;;;;;;;;;;;;;;28.92;35.64;101160.22;5064389;28;1016;-26
2023/09/08 07:08:50;;;;;;;;;;;;;;;28.96;36.37;101161.50;5077675;28;1059;-26
2023/09/08 07:11:16;;;;;;;;;;;;;;;28.95;35.73;101162.56;5047226;28;1902;-26
2023/09/08 07:13:42;;;;;;;;;;;;;;;29.05;35.20;101158.75;5047670;28;2627;-26
2023/09/08 07:16:08;;;;;;;;;;;;;;;29.01;35.71;101163.69;5056015;28;1229;-26
2023/09/08 07:18:35;;;;;;;;;;;;;;;28.98;36.05;101161.34;5050496;28;1107;-27
2023/09/08 07:21:02;;;;;;;;;;;;;;;28.88;35.59;101155.38;5056133;28;1294;-27
2023/09/08 07:23:28;;;;;;;;;;;;;;;28.94;35.73;101152.75;5059105;28;1238;-28
2023/09/08 07:25:53;;;;;;;;;;;;;;;28.96;35.19;101160.69;5059547;28;1308;-27
2023/09/08 07:28:22;;;;;;;;;;;;;;;29.05;35.09;101162.31;5059659;28;1200;-29
2023/09/08 07:30:48;;;;;;;;;;;;;;;29.21;35.12;101160.44;5059455;28;1979;-26
2023/09/08 07:33:14;;;;;;;;;;;;;;;29.26;34.86;101165.31;5059024;28;1028;-26
2023/09/08 07:35:40;;;;;;;;;;;;;;;29.39;34.58;101170.06;5054795;28;1130;-27
2023/09/08 07:38:05;;;;;;;;;;;;;;;29.44;34.70;101168.47;5050083;28;1114;-25
2023/09/08 07:40:31;;;;;;;;;;;;;;;29.21;34.87;101166.69;5076964;28;1063;-26
2023/09/08 07:42:57;;;;;;;;;;;;;;;28.99;36.17;101173.03;5048725;28;2523;-30
2023/09/08 07:45:23;;;;;;;;;;;;;;;29.00;36.36;101170.16;5061094;28;1186;-26
2023/09/08 07:47:48;;;;;;;;;;;;;;;28.94;36.04;101179.84;5075396;28;984;-30
2023/09/08 07:50:19;;;;;;;;;;;;;;;28.89;36.82;101186.81;5060039;28;1061;-28
2023/09/08 07:52:45;;;;;;;;;;;;;;;28.94;36.59;101187.97;5068051;28;1973;-26
2023/09/08 07:55:10;;;;;;;;;;;;;;;28.90;37.51;101174.94;5059572;28;1016;-30
2023/09/08 07:57:36;;;;;;;;;;;;;;;29.02;37.04;101178.94;5067491;28;1083;-31
2023/09/08 08:00:02;;;;;;;;;;;;;;;29.05;36.76;101175.00;5072706;28;1194;-28
2023/09/08 08:02:38;;;;;;;;;;;;;;;29.01;36.64;101184.53;5068601;28;989;-28
2023/09/08 08:05:04;;;;;;;;;;;;;;;29.06;36.35;101171.28;5076282;28;1030;-26
2023/09/08 08:07:30;;;;;;;;;;;;;;;29.14;36.13;101184.75;5076423;28;1012;-30
2023/09/08 08:09:55;;;;;;;;;;;;;;;29.05;36.29;101189.41;5076201;28;1107;-26
2023/09/08 08:12:21;;;;;;;;;;;;;;;29.06;36.42;101182.94;5070788;28;1973;-30
2023/09/08 08:14:46;;;;;;;;;;;;;;;29.00;35.65;101191.81;5040627;28;1138;-28
2023/09/08 08:17:12;;;;;;;;;;;;;;;29.00;35.96;101190.97;5056465;28;1131;-26
2023/09/08 08:19:38;;;;;;;;;;;;;;;29.04;36.00;101197.72;5074698;28;1071;-27
2023/09/08 08:22:03;;;;;;;;;;;;;;;29.00;35.54;101205.34;5076148;28;1039;-29
2023/09/08 08:24:29;;;;;;;;;;;;;;;28.90;36.20;101191.19;5071170;28;1071;-28
2023/09/08 08:26:54;;;;;;;;;;;;;;;28.91;36.02;101192.91;5056531;28;1103;-27
2023/09/08 08:29:20;;;;;;;;;;;;;;;29.00;36.10;101193.66;5074303;28;1470;-27
2023/09/08 08:31:45;;;;;;;;;;;;;;;29.15;35.69;101191.81;5065008;28;1902;-26
2023/09/08 08:34:11;;;;;;;;;;;;;;;29.14;35.82;101194.72;5074302;28;1040;-29
2023/09/08 08:36:36;;;;;;;;;;;;;;;29.04;35.98;101200.41;5076384;28;833;-29
2023/09/08 08:39:02;;;;;;;;;;;;;;;29.01;35.52;101196.19;5075680;28;1186;-26
2023/09/08 08:41:28;;;;;;;;;;;;;;;29.00;35.72;101199.09;5064450;28;1012;-28
2023/09/08 08:43:54;;;;;;;;;;;;;;;28.99;35.36;101197.41;5069806;28;2525;-29
2023/09/08 08:46:20;;;;;;;;;;;;;;;29.10;35.41;101194.25;5045731;28;1000;-29
2023/09/08 08:48:46;;;;;;;;;;;;;;;29.03;35.52;101196.03;5074302;28;1116;-29
2023/09/08 08:51:11;;;;;;;;;;;;;;;29.08;35.27;101193.59;5057687;28;1925;-26
2023/09/08 08:53:37;;;;;;;;;;;;;;;29.05;35.91;101194.81;5075788;28;1411;-29
2023/09/08 08:56:03;;;;;;;;;;;;;;;29.12;35.78;101191.34;5075832;28;1109;-26
2023/09/08 08:58:28;;;;;;;;;;;;;;;29.07;35.16;101194.63;5057598;28;1071;-26
2023/09/08 09:00:56;;;;;;;;;;;;;;;29.06;35.11;101193.78;5044622;28;1523;-28
2023/09/08 09:03:23;;;;;;;;;;;;;;;29.12;35.12;101196.78;5024086;28;1116;-26
2023/09/08 09:05:48;;;;;;;;;;;;;;;29.11;35.16;101190.53;5035989;28;1067;-26
2023/09/08 09:08:15;;;;;;;;;;;;;;;29.01;36.06;101192.66;5035335;28;1127;-27
2023/09/08 09:10:40;;;;;;;;;;;;;;;29.14;35.36;101192.00;5034484;28;1197;-28
2023/09/08 09:13:05;;;;;;;;;;;;;;;29.09;35.16;101190.69;5028235;28;2329;-26
2023/09/08 09:15:32;;;;;;;;;;;;;;;29.19;34.75;101186.88;5034378;28;1477;-28
2023/09/08 09:18:04;;;;;;;;;;;;;;;29.20;34.31;101192.13;5034937;28;1171;-26
2023/09/08 09:20:29;;;;;;;;;;;;;;;29.14;35.30;101189.31;5034559;28;1695;-28
2023/09/08 09:22:55;;;;;;;;;;;;;;;29.12;34.92;101189.50;5035377;28;1162;-26
2023/09/08 09:25:24;;;;;;;;;;;;;;;29.07;34.59;101187.34;5028524;28;1375;-26
2023/09/08 09:27:53;;;;;;;;;;;;;;;29.07;35.07;101190.06;5022323;28;1083;-28
2023/09/08 09:30:19;;;;;;;;;;;;;;;29.11;35.08;101193.25;5035268;28;1461;-26
2023/09/08 09:32:44;;;;;;;;;;;;;;;29.14;34.29;101190.16;5024026;28;1906;-29
2023/09/08 09:35:10;;;;;;;;;;;;;;;29.06;34.94;101187.53;5035622;28;1043;-26
2023/09/08 09:37:35;;;;;;;;;;;;;;;29.10;34.77;101188.84;5035222;28;1376;-29
2023/09/08 09:40:01;;;;;;;;;;;;;;;29.06;34.91;101184.81;5035230;28;1150;-26
2023/09/08 09:42:27;;;;;;;;;;;;;;;29.06;34.80;101180.22;5028489;28;2506;-27
2023/09/08 09:44:53;;;;;;;;;;;;;;;29.03;34.93;101172.47;5029118;28;1055;-25
2023/09/08 09:47:19;;;;;;;;;;;;;;;28.98;35.01;101168.66;5035238;28;1048;-26
2023/09/08 09:49:45;;;;;;;;;;;;;;;29.00;35.01;101172.00;5035009;28;854;-27
2023/09/08 09:52:14;;;;;;;;;;;;;;;28.99;34.72;101164.91;5035350;28;1902;-28
2023/09/08 09:54:40;;;;;;;;;;;;;;;28.92;34.81;101159.38;5025709;28;1381;-25
2023/09/08 09:57:06;;;;;;;;;;;;;;;29.15;34.64;101166.59;5036176;28;1162;-26
2023/09/08 09:59:31;;;;;;;;;;;;;;;29.04;35.16;101165.22;5037828;28;1102;-31
2023/09/08 10:01:57;;;;;;;;;;;;;;;29.23;34.65;101162.97;5037768;28;1187;-27
2023/09/08 10:04:22;;;;;;;;;;;;;;;29.15;34.73;101161.19;5038888;28;1206;-26
2023/09/08 10:06:48;;;;;;;;;;;;;;;29.27;34.43;101166.97;5037942;28;1210;-27
2023/09/08 10:09:16;;;;;;;;;;;;;;;29.23;34.83;101165.69;5038331;28;1054;-29
2023/09/08 10:11:47;;;;;;;;;;;;;;;29.34;34.84;101157.06;5039112;28;1977;-30
2023/09/08 10:14:14;;;;;;;;;;;;;;;29.18;34.89;101147.25;5025045;28;951;-27
2023/09/08 10:16:42;;;;;;;;;;;;;;;29.33;35.07;101152.66;5038746;28;1124;-25
2023/09/08 10:19:09;;;;;;;;;;;;;;;29.29;35.19;101143.25;5038732;28;1082;-28
2023/09/08 10:21:36;;;;;;;;;;;;;;;29.34;34.80;101144.34;5038222;28;1240;-26
2023/09/08 10:24:24;;;;;;;;;;;;;;;29.41;34.79;101146.31;5038245;28;1051;-27
2023/09/08 10:26:51;;;;;;;;;;;;;;;29.36;35.20;101141.47;5023601;28;1834;-31
2023/09/08 10:29:17;;;;;;;;;;;;;;;29.54;35.05;101134.78;5035278;28;1003;-26
2023/09/08 10:31:43;;;;;;;;;;;;;;;29.32;35.48;101135.59;5027680;28;1910;-25
2023/09/08 10:34:08;;;;;;;;;;;;;;;29.34;35.28;101140.81;5037305;28;1021;-27
2023/09/08 10:36:34;;;;;;;;;;;;;;;29.34;35.47;101144.34;5037041;28;1012;-26
2023/09/08 10:39:18;;;;;;;;;;;;;;;29.25;35.60;101144.63;5036939;28;1193;-27
2023/09/08 10:41:44;;;;;;;;;;;;;;;29.20;35.91;101143.34;5027869;28;2401;-26
2023/09/08 10:44:10;;;;;;;;;;;;;;;29.36;35.53;101136.06;5019207;28;1187;-28
2023/09/08 10:46:36;;;;;;;;;;;;;;;29.30;36.13;101143.06;5027948;28;1327;-27
2023/09/08 10:49:06;;;;;;;;;;;;;;;29.37;35.40;101145.00;5034039;28;1124;-30
2023/09/08 10:51:32;;;;;;;;;;;;;;;29.31;35.57;101139.31;5029844;28;1913;-28
2023/09/08 10:53:58;;;;;;;;;;;;;;;29.39;34.94;101140.25;5035581;28;1196;-29
2023/09/08 10:56:27;;;;;;;;;;;;;;;29.37;35.28;101136.88;5037711;28;1047;-28
2023/09/08 10:58:53;;;;;;;;;;;;;;;29.37;35.67;101132.31;5038072;28;1091;-26
2023/09/08 11:01:22;;;;;;;;;;;;;;;29.38;35.64;101144.00;5061331;28;1186;-31
2023/09/08 11:03:49;;;;;;;;;;;;;;;29.35;35.79;101139.78;5064179;28;1103;-28
2023/09/08 11:06:18;;;;;;;;;;;;;;;29.43;35.14;101133.41;5077660;28;1000;-26
2023/09/08 11:08:44;;;;;;;;;;;;;;;29.45;35.35;101143.03;5071372;28;1479;-27
2023/09/08 11:11:14;;;;;;;;;;;;;;;29.53;35.29;101143.97;5077186;28;1901;-30
2023/09/08 11:13:39;;;;;;;;;;;;;;;29.53;35.04;101144.78;5077526;28;2301;-27
2023/09/08 11:16:05;;;;;;;;;;;;;;;29.15;36.62;101134.09;5077201;28;1125;-29
2023/09/08 11:18:31;;;;;;;;;;;;;;;29.25;36.66;101133.78;5077382;28;1006;-30
2023/09/08 11:20:57;;;;;;;;;;;;;;;29.14;36.59;101140.53;5064664;28;1111;-28
2023/09/08 11:23:23;;;;;;;;;;;;;;;29.17;36.32;101132.03;5064048;28;1429;-29
2023/09/08 11:25:52;;;;;;;;;;;;;;;29.39;35.37;101130.25;5059285;28;1111;-28
2023/09/08 11:28:17;;;;;;;;;;;;;;;29.41;35.59;101140.91;5064421;28;1086;-26
2023/09/08 11:30:46;;;;;;;;;;;;;;;29.42;36.15;101143.41;5077625;28;1011;-29
2023/09/08 11:33:18;;;;;;;;;;;;;;;29.29;37.77;101141.38;5077109;28;1984;-26
2023/09/08 11:35:46;;;;;;;;;;;;;;;29.19;38.34;101146.25;5077465;28;1230;-26
2023/09/08 11:38:12;;;;;;;;;;;;;;;29.09;38.40;101136.50;5065673;28;880;-29
2023/09/08 11:40:37;;;;;;;;;;;;;;;29.13;39.41;101144.28;5075187;28;1078;-30
2023/09/08 11:43:03;;;;;;;;;;;;;;;29.09;39.23;101131.09;5066203;28;2495;-28
2023/09/08 11:45:29;;;;;;;;;;;;;;;29.03;39.57;101131.84;5074500;28;1019;-28
2023/09/08 11:47:55;;;;;;;;;;;;;;;29.06;39.98;101120.63;5076761;28;1087;-27
2023/09/08 11:50:20;;;;;;;;;;;;;;;29.02;39.87;101130.19;5076793;28;1127;-29
2023/09/08 11:52:47;;;;;;;;;;;;;;;29.00;39.92;101134.94;5076554;28;1910;-29
2023/09/08 11:55:13;;;;;;;;;;;;;;;29.00;39.57;101134.09;5076751;28;1208;-27
2023/09/08 11:57:41;;;;;;;;;;;;;;;29.05;39.72;101124.38;5076633;28;1241;-30
2023/09/08 12:00:10;;;;;;;;;;;;;;;28.98;40.62;101133.47;5070785;28;1380;-27
2023/09/08 12:02:36;;;;;;;;;;;;;;;28.96;40.13;101129.03;5060381;28;868;-27
2023/09/08 12:05:02;;;;;;;;;;;;;;;28.93;39.77;101132.09;5075748;28;1098;-26
2023/09/08 12:07:28;;;;;;;;;;;;;;;29.13;38.77;101128.84;5059336;28;1405;-26
2023/09/08 12:09:53;;;;;;;;;;;;;;;29.08;39.12;101117.75;5075272;28;1191;-27
2023/09/08 12:12:19;;;;;;;;;;;;;;;29.10;39.14;101118.41;5072244;28;1979;-26
2023/09/08 12:14:44;;;;;;;;;;;;;;;29.07;39.38;101118.78;5076468;28;917;-28
2023/09/08 12:17:10;;;;;;;;;;;;;;;28.99;39.53;101117.03;5077028;28;1091;-28
2023/09/08 12:19:38;;;;;;;;;;;;;;;29.05;39.59;101108.13;5076435;28;1003;-26
2023/09/08 12:22:04;;;;;;;;;;;;;;;28.99;39.41;101108.03;5074973;28;1012;-28
2023/09/08 12:24:49;;;;;;;;;;;;;;;28.90;39.23;101107.25;5076263;28;1071;-27
2023/09/08 12:27:15;;;;;;;;;;;;;;;28.91;40.14;101111.66;5067276;28;856;-28
2023/09/08 12:29:41;;;;;;;;;;;;;;;28.92;39.49;101108.78;5054829;28;1102;-26
2023/09/08 12:32:07;;;;;;;;;;;;;;;28.94;39.53;101116.72;5075844;28;1902;-26
2023/09/08 12:34:32;;;;;;;;;;;;;;;28.96;39.25;101111.94;5076386;28;1083;-27
2023/09/08 12:36:58;;;;;;;;;;;;;;;29.01;39.55;101109.53;5062522;28;1015;-30
2023/09/08 12:39:23;;;;;;;;;;;;;;;29.12;39.19;101110.09;5058156;28;1134;-25
2023/09/08 12:41:48;;;;;;;;;;;;;;;28.99;38.99;101105.34;5075961;28;1848;-29